EGMD/LYX METAR and TAF weather

Enter ICAO airport designator
Station Type Date Time Source
EGMD METAR 2018/12/12 23:20 UTC NOAA

EGMD 122320Z AUTO 13015KT 9999 BKN012/// 04/02 Q1020


Station Type Date Time Source
EGMD Decoded METAR 2018/12/12 23:20 UTC NOAA

Lydd Airport , United Kingdom (EGMD) 50-57N 000-56E
Dec 12, 2018 - 06:20 PM EST / 2018.12.12 2320 UTC
Wind: from the SE (130 degrees) at 17 MPH (15 KT):0
Visibility: greater than 7 mile(s):0
Sky conditions: mostly cloudy
Temperature: 39 F (4 C)
Dew Point: 35 F (2 C)
Relative Humidity: 86%
Pressure (altimeter): 30.12 in. Hg (1020 hPa)
ob: EGMD 122320Z AUTO 13015KT 9999 BKN012/// 04/02 Q1020
cycle: 23

Station Type Date Time Source
EGMD TAF UTC NOAA

Error!


Example: see airport list